sensor_id;sensor_type;location;lat;lon;timestamp;temperature;humidity
31129;DHT22;17777;48.770;8.944;2023-05-10T00:00:25;20.80;54.90
31129;DHT22;17777;48.770;8.944;2023-05-10T00:02:51;20.80;54.90
31129;DHT22;17777;48.770;8.944;2023-05-10T00:05:16;20.80;54.90
31129;DHT22;17777;48.770;8.944;2023-05-10T00:07:42;20.70;54.90
31129;DHT22;17777;48.770;8.944;2023-05-10T00:10:10;20.70;54.90
31129;DHT22;17777;48.770;8.944;2023-05-10T00:12:36;20.70;54.80
31129;DHT22;17777;48.770;8.944;2023-05-10T00:15:03;20.70;54.70
31129;DHT22;17777;48.770;8.944;2023-05-10T00:17:29;20.60;54.50
31129;DHT22;17777;48.770;8.944;2023-05-10T00:19:55;20.60;54.50
31129;DHT22;17777;48.770;8.944;2023-05-10T00:22:21;20.50;54.40
31129;DHT22;17777;48.770;8.944;2023-05-10T00:24:47;20.50;54.50
31129;DHT22;17777;48.770;8.944;2023-05-10T00:27:12;20.40;54.40
31129;DHT22;17777;48.770;8.944;2023-05-10T00:29:38;20.40;54.40
31129;DHT22;17777;48.770;8.944;2023-05-10T00:32:04;20.30;54.30
31129;DHT22;17777;48.770;8.944;2023-05-10T00:34:31;20.30;54.40
31129;DHT22;17777;48.770;8.944;2023-05-10T00:36:57;20.20;54.30
31129;DHT22;17777;48.770;8.944;2023-05-10T00:39:22;20.20;54.40
31129;DHT22;17777;48.770;8.944;2023-05-10T00:41:48;20.10;54.40
31129;DHT22;17777;48.770;8.944;2023-05-10T00:44:15;20.00;54.50
31129;DHT22;17777;48.770;8.944;2023-05-10T00:46:41;20.00;54.70
31129;DHT22;17777;48.770;8.944;2023-05-10T00:49:07;20.00;54.80
31129;DHT22;17777;48.770;8.944;2023-05-10T00:51:33;20.00;54.80
31129;DHT22;17777;48.770;8.944;2023-05-10T00:53:59;20.00;54.90
31129;DHT22;17777;48.770;8.944;2023-05-10T00:56:25;19.90;54.90
31129;DHT22;17777;48.770;8.944;2023-05-10T00:58:52;19.90;55.00
31129;DHT22;17777;48.770;8.944;2023-05-10T01:01:19;19.90;55.00
31129;DHT22;17777;48.770;8.944;2023-05-10T01:03:45;19.90;55.10
31129;DHT22;17777;48.770;8.944;2023-05-10T01:06:12;19.80;55.10
31129;DHT22;17777;48.770;8.944;2023-05-10T01:08:38;19.80;55.10
31129;DHT22;17777;48.770;8.944;2023-05-10T01:11:05;19.80;55.20
31129;DHT22;17777;48.770;8.944;2023-05-10T01:13:34;19.80;55.30
31129;DHT22;17777;48.770;8.944;2023-05-10T01:16:03;19.80;55.40
31129;DHT22;17777;48.770;8.944;2023-05-10T01:18:38;19.80;55.40
31129;DHT22;17777;48.770;8.944;2023-05-10T01:21:17;19.80;55.50
31129;DHT22;17777;48.770;8.944;2023-05-10T01:24:16;19.80;55.40
31129;DHT22;17777;48.770;8.944;2023-05-10T01:30:33;19.80;55.40
31129;DHT22;17777;48.770;8.944;2023-05-10T01:33:25;19.80;55.20
31129;DHT22;17777;48.770;8.944;2023-05-10T01:36:16;19.80;55.30
31129;DHT22;17777;48.770;8.944;2023-05-10T01:39:24;19.80;55.40
31129;DHT22;17777;48.770;8.944;2023-05-10T01:42:11;19.80;55.30
31129;DHT22;17777;48.770;8.944;2023-05-10T01:44:55;19.80;56.00
31129;DHT22;17777;48.770;8.944;2023-05-10T01:47:38;19.80;55.50
31129;DHT22;17777;48.770;8.944;2023-05-10T01:50:14;19.80;55.40
31129;DHT22;17777;48.770;8.944;2023-05-10T01:52:46;19.70;55.30
31129;DHT22;17777;48.770;8.944;2023-05-10T01:55:16;19.80;55.30
31129;DHT22;17777;48.770;8.944;2023-05-10T01:57:44;19.70;55.10
31129;DHT22;17777;48.770;8.944;2023-05-10T02:00:13;19.80;55.20
31129;DHT22;17777;48.770;8.944;2023-05-10T02:02:44;19.70;55.20
31129;DHT22;17777;48.770;8.944;2023-05-10T02:05:13;19.80;55.20
31129;DHT22;17777;48.770;8.944;2023-05-10T02:07:40;19.80;55.20
31129;DHT22;17777;48.770;8.944;2023-05-10T02:10:10;19.70;55.10
31129;DHT22;17777;48.770;8.944;2023-05-10T02:12:39;19.70;55.10
31129;DHT22;17777;48.770;8.944;2023-05-10T02:15:08;19.70;55.10
31129;DHT22;17777;48.770;8.944;2023-05-10T02:17:35;19.70;55.10
31129;DHT22;17777;48.770;8.944;2023-05-10T02:20:04;19.70;55.20
31129;DHT22;17777;48.770;8.944;2023-05-10T02:22:33;19.70;55.20
31129;DHT22;17777;48.770;8.944;2023-05-10T02:25:01;19.70;55.20
31129;DHT22;17777;48.770;8.944;2023-05-10T02:27:29;19.70;55.10
31129;DHT22;17777;48.770;8.944;2023-05-10T02:29:56;19.70;55.20
31129;DHT22;17777;48.770;8.944;2023-05-10T02:32:25;19.70;55.20
31129;DHT22;17777;48.770;8.944;2023-05-10T02:34:52;19.70;55.10
31129;DHT22;17777;48.770;8.944;2023-05-10T02:37:19;19.70;55.10
31129;DHT22;17777;48.770;8.944;2023-05-10T02:39:48;19.60;55.00
31129;DHT22;17777;48.770;8.944;2023-05-10T02:42:19;19.60;55.00
31129;DHT22;17777;48.770;8.944;2023-05-10T02:44:53;19.60;55.00
31129;DHT22;17777;48.770;8.944;2023-05-10T02:47:20;19.60;55.00
31129;DHT22;17777;48.770;8.944;2023-05-10T02:49:47;19.60;55.00
31129;DHT22;17777;48.770;8.944;2023-05-10T02:52:16;19.60;55.00
31129;DHT22;17777;48.770;8.944;2023-05-10T02:54:49;19.50;55.10
31129;DHT22;17777;48.770;8.944;2023-05-10T02:57:17;19.50;55.20
31129;DHT22;17777;48.770;8.944;2023-05-10T02:59:48;19.50;55.20
31129;DHT22;17777;48.770;8.944;2023-05-10T03:02:14;19.50;55.20
31129;DHT22;17777;48.770;8.944;2023-05-10T03:04:40;19.50;55.30
31129;DHT22;17777;48.770;8.944;2023-05-10T03:07:06;19.50;55.30
31129;DHT22;17777;48.770;8.944;2023-05-10T03:09:33;19.50;55.30
31129;DHT22;17777;48.770;8.944;2023-05-10T03:12:11;19.50;55.40
31129;DHT22;17777;48.770;8.944;2023-05-10T03:17:57;19.50;55.70
31129;DHT22;17777;48.770;8.944;2023-05-10T03:20:58;19.50;55.70
31129;DHT22;17777;48.770;8.944;2023-05-10T03:23:35;19.50;55.70
31129;DHT22;17777;48.770;8.944;2023-05-10T03:26:07;19.50;55.60
31129;DHT22;17777;48.770;8.944;2023-05-10T03:28:34;19.50;55.60
31129;DHT22;17777;48.770;8.944;2023-05-10T03:31:03;19.50;55.70
31129;DHT22;17777;48.770;8.944;2023-05-10T03:33:31;19.50;55.70
31129;DHT22;17777;48.770;8.944;2023-05-10T03:35:58;19.50;55.60
31129;DHT22;17777;48.770;8.944;2023-05-10T03:38:25;19.50;56.20
31129;DHT22;17777;48.770;8.944;2023-05-10T03:40:51;19.50;55.60
31129;DHT22;17777;48.770;8.944;2023-05-10T03:43:17;19.50;55.60
31129;DHT22;17777;48.770;8.944;2023-05-10T03:45:42;19.50;55.60
31129;DHT22;17777;48.770;8.944;2023-05-10T03:48:08;19.50;55.60
31129;DHT22;17777;48.770;8.944;2023-05-10T03:50:34;19.50;55.60
31129;DHT22;17777;48.770;8.944;2023-05-10T03:53:00;19.50;55.50
31129;DHT22;17777;48.770;8.944;2023-05-10T03:55:27;19.50;55.60
31129;DHT22;17777;48.770;8.944;2023-05-10T03:57:53;19.50;55.60
31129;DHT22;17777;48.770;8.944;2023-05-10T04:00:21;19.40;55.50
31129;DHT22;17777;48.770;8.944;2023-05-10T04:02:49;19.40;55.50
31129;DHT22;17777;48.770;8.944;2023-05-10T04:05:18;19.40;55.50
31129;DHT22;17777;48.770;8.944;2023-05-10T04:07:44;19.40;55.60
31129;DHT22;17777;48.770;8.944;2023-05-10T04:10:10;19.40;55.60
31129;DHT22;17777;48.770;8.944;2023-05-10T04:12:36;19.40;55.60
31129;DHT22;17777;48.770;8.944;2023-05-10T04:15:02;19.40;55.70
31129;DHT22;17777;48.770;8.944;2023-05-10T04:17:29;19.40;55.70
31129;DHT22;17777;48.770;8.944;2023-05-10T04:19:55;19.40;55.80
31129;DHT22;17777;48.770;8.944;2023-05-10T04:22:21;19.40;55.80
31129;DHT22;17777;48.770;8.944;2023-05-10T04:24:47;19.40;55.80
31129;DHT22;17777;48.770;8.944;2023-05-10T04:27:12;19.40;55.80
31129;DHT22;17777;48.770;8.944;2023-05-10T04:29:38;19.40;55.90
31129;DHT22;17777;48.770;8.944;2023-05-10T04:32:04;19.40;55.80
31129;DHT22;17777;48.770;8.944;2023-05-10T04:34:30;19.40;55.90
31129;DHT22;17777;48.770;8.944;2023-05-10T04:36:56;19.40;55.90
31129;DHT22;17777;48.770;8.944;2023-05-10T04:39:21;19.40;55.90
31129;DHT22;17777;48.770;8.944;2023-05-10T04:41:47;19.40;55.90
31129;DHT22;17777;48.770;8.944;2023-05-10T04:44:13;19.40;55.90
31129;DHT22;17777;48.770;8.944;2023-05-10T04:46:39;19.40;56.00
31129;DHT22;17777;48.770;8.944;2023-05-10T04:49:04;19.40;56.00
31129;DHT22;17777;48.770;8.944;2023-05-10T04:51:30;19.40;56.00
31129;DHT22;17777;48.770;8.944;2023-05-10T04:53:56;19.40;56.00
31129;DHT22;17777;48.770;8.944;2023-05-10T04:56:22;19.40;56.00
31129;DHT22;17777;48.770;8.944;2023-05-10T04:58:48;19.40;56.00
31129;DHT22;17777;48.770;8.944;2023-05-10T05:01:14;19.40;56.00
31129;DHT22;17777;48.770;8.944;2023-05-10T05:03:40;19.50;56.70
31129;DHT22;17777;48.770;8.944;2023-05-10T05:06:06;19.40;56.10
31129;DHT22;17777;48.770;8.944;2023-05-10T05:08:32;19.40;56.10
31129;DHT22;17777;48.770;8.944;2023-05-10T05:10:58;19.40;56.70
31129;DHT22;17777;48.770;8.944;2023-05-10T05:13:24;19.40;56.00
31129;DHT22;17777;48.770;8.944;2023-05-10T05:15:50;19.50;56.10
31129;DHT22;17777;48.770;8.944;2023-05-10T05:18:16;19.50;56.10
31129;DHT22;17777;48.770;8.944;2023-05-10T05:20:41;19.50;56.10
31129;DHT22;17777;48.770;8.944;2023-05-10T05:23:07;19.40;56.10
31129;DHT22;17777;48.770;8.944;2023-05-10T05:25:33;19.50;56.20
31129;DHT22;17777;48.770;8.944;2023-05-10T05:27:59;19.40;56.20
31129;DHT22;17777;48.770;8.944;2023-05-10T05:30:25;19.40;56.30
31129;DHT22;17777;48.770;8.944;2023-05-10T05:32:50;19.50;56.30
31129;DHT22;17777;48.770;8.944;2023-05-10T05:35:16;19.40;56.30
31129;DHT22;17777;48.770;8.944;2023-05-10T05:37:42;19.40;56.20
31129;DHT22;17777;48.770;8.944;2023-05-10T05:40:08;19.50;56.30
31129;DHT22;17777;48.770;8.944;2023-05-10T05:42:38;19.40;56.40
31129;DHT22;17777;48.770;8.944;2023-05-10T05:45:04;19.50;56.40
31129;DHT22;17777;48.770;8.944;2023-05-10T05:47:30;19.50;56.60
31129;DHT22;17777;48.770;8.944;2023-05-10T05:49:56;19.50;56.50
31129;DHT22;17777;48.770;8.944;2023-05-10T05:52:22;19.50;56.60
31129;DHT22;17777;48.770;8.944;2023-05-10T05:54:48;19.50;56.50
31129;DHT22;17777;48.770;8.944;2023-05-10T05:57:13;19.50;56.50
31129;DHT22;17777;48.770;8.944;2023-05-10T05:59:39;19.50;56.50
31129;DHT22;17777;48.770;8.944;2023-05-10T06:02:09;19.50;56.40
31129;DHT22;17777;48.770;8.944;2023-05-10T06:04:35;19.50;56.40
31129;DHT22;17777;48.770;8.944;2023-05-10T06:07:01;19.50;56.50
31129;DHT22;17777;48.770;8.944;2023-05-10T06:09:27;19.50;56.40
31129;DHT22;17777;48.770;8.944;2023-05-10T06:11:52;19.50;56.40
31129;DHT22;17777;48.770;8.944;2023-05-10T06:14:20;19.50;56.30
31129;DHT22;17777;48.770;8.944;2023-05-10T06:16:46;19.60;56.40
31129;DHT22;17777;48.770;8.944;2023-05-10T06:19:12;19.60;56.30
31129;DHT22;17777;48.770;8.944;2023-05-10T06:21:38;19.50;56.40
31129;DHT22;17777;48.770;8.944;2023-05-10T06:24:04;19.50;56.30
31129;DHT22;17777;48.770;8.944;2023-05-10T06:26:32;19.50;56.20
31129;DHT22;17777;48.770;8.944;2023-05-10T06:28:58;19.50;56.20
31129;DHT22;17777;48.770;8.944;2023-05-10T06:31:24;19.50;56.20
31129;DHT22;17777;48.770;8.944;2023-05-10T06:33:50;19.50;56.30
31129;DHT22;17777;48.770;8.944;2023-05-10T06:36:16;19.50;56.30
31129;DHT22;17777;48.770;8.944;2023-05-10T06:38:42;19.50;56.30
31129;DHT22;17777;48.770;8.944;2023-05-10T06:41:07;19.50;56.40
31129;DHT22;17777;48.770;8.944;2023-05-10T06:43:33;19.50;56.40
31129;DHT22;17777;48.770;8.944;2023-05-10T06:46:00;19.50;56.50
31129;DHT22;17777;48.770;8.944;2023-05-10T06:48:25;19.50;56.50
31129;DHT22;17777;48.770;8.944;2023-05-10T06:50:51;19.50;56.70
31129;DHT22;17777;48.770;8.944;2023-05-10T06:53:17;19.50;56.70
31129;DHT22;17777;48.770;8.944;2023-05-10T06:55:43;19.50;56.80
31129;DHT22;17777;48.770;8.944;2023-05-10T06:58:08;19.50;57.10
31129;DHT22;17777;48.770;8.944;2023-05-10T07:00:34;19.50;57.00
31129;DHT22;17777;48.770;8.944;2023-05-10T07:03:00;19.60;57.10
31129;DHT22;17777;48.770;8.944;2023-05-10T07:05:26;19.60;57.10
31129;DHT22;17777;48.770;8.944;2023-05-10T07:07:53;19.60;57.20
31129;DHT22;17777;48.770;8.944;2023-05-10T07:10:18;19.60;57.20
31129;DHT22;17777;48.770;8.944;2023-05-10T07:12:44;19.70;57.20
31129;DHT22;17777;48.770;8.944;2023-05-10T07:15:10;19.70;57.20
31129;DHT22;17777;48.770;8.944;2023-05-10T07:17:36;19.70;57.10
31129;DHT22;17777;48.770;8.944;2023-05-10T07:20:02;19.70;57.10
31129;DHT22;17777;48.770;8.944;2023-05-10T07:22:29;19.80;57.20
31129;DHT22;17777;48.770;8.944;2023-05-10T07:24:55;19.80;57.10
31129;DHT22;17777;48.770;8.944;2023-05-10T07:27:21;19.80;57.00
31129;DHT22;17777;48.770;8.944;2023-05-10T07:29:46;19.90;56.80
31129;DHT22;17777;48.770;8.944;2023-05-10T07:32:12;19.90;56.70
31129;DHT22;17777;48.770;8.944;2023-05-10T07:34:38;19.90;56.70
31129;DHT22;17777;48.770;8.944;2023-05-10T07:37:04;19.90;56.70
31129;DHT22;17777;48.770;8.944;2023-05-10T07:39:31;20.00;56.70
31129;DHT22;17777;48.770;8.944;2023-05-10T07:41:57;19.90;56.50
31129;DHT22;17777;48.770;8.944;2023-05-10T07:44:23;20.00;56.60
31129;DHT22;17777;48.770;8.944;2023-05-10T07:46:49;20.00;56.40
31129;DHT22;17777;48.770;8.944;2023-05-10T07:49:15;20.00;56.20
31129;DHT22;17777;48.770;8.944;2023-05-10T07:51:41;20.00;56.20
31129;DHT22;17777;48.770;8.944;2023-05-10T07:54:07;20.00;56.10
31129;DHT22;17777;48.770;8.944;2023-05-10T07:56:33;20.10;56.20
31129;DHT22;17777;48.770;8.944;2023-05-10T07:59:00;20.00;56.00
31129;DHT22;17777;48.770;8.944;2023-05-10T08:01:26;20.10;56.10
31129;DHT22;17777;48.770;8.944;2023-05-10T08:03:52;20.10;56.10
31129;DHT22;17777;48.770;8.944;2023-05-10T08:06:19;20.10;56.00
31129;DHT22;17777;48.770;8.944;2023-05-10T08:08:46;20.10;55.70
31129;DHT22;17777;48.770;8.944;2023-05-10T08:11:19;20.10;56.30
31129;DHT22;17777;48.770;8.944;2023-05-10T08:13:46;20.10;55.70
31129;DHT22;17777;48.770;8.944;2023-05-10T08:16:13;20.10;55.70
31129;DHT22;17777;48.770;8.944;2023-05-10T08:18:40;20.20;55.80
31129;DHT22;17777;48.770;8.944;2023-05-10T08:21:06;20.20;55.70
31129;DHT22;17777;48.770;8.944;2023-05-10T08:23:32;20.20;55.60
31129;DHT22;17777;48.770;8.944;2023-05-10T08:25:58;20.20;55.60
31129;DHT22;17777;48.770;8.944;2023-05-10T08:28:24;20.30;55.70
31129;DHT22;17777;48.770;8.944;2023-05-10T08:30:50;20.30;55.70
31129;DHT22;17777;48.770;8.944;2023-05-10T08:33:17;20.30;55.50
31129;DHT22;17777;48.770;8.944;2023-05-10T08:35:43;20.30;55.30
31129;DHT22;17777;48.770;8.944;2023-05-10T08:38:09;20.30;55.20
31129;DHT22;17777;48.770;8.944;2023-05-10T08:40:37;20.40;55.20
31129;DHT22;17777;48.770;8.944;2023-05-10T08:43:08;20.40;55.10
31129;DHT22;17777;48.770;8.944;2023-05-10T08:45:41;20.40;54.80
31129;DHT22;17777;48.770;8.944;2023-05-10T08:48:09;20.40;54.70
31129;DHT22;17777;48.770;8.944;2023-05-10T08:50:37;20.40;54.70
31129;DHT22;17777;48.770;8.944;2023-05-10T08:53:06;20.40;54.60
31129;DHT22;17777;48.770;8.944;2023-05-10T08:55:34;20.40;54.50
31129;DHT22;17777;48.770;8.944;2023-05-10T08:58:03;20.40;54.40
31129;DHT22;17777;48.770;8.944;2023-05-10T09:00:29;20.40;54.30
31129;DHT22;17777;48.770;8.944;2023-05-10T09:03:00;20.50;54.30
31129;DHT22;17777;48.770;8.944;2023-05-10T09:05:26;20.50;54.10
31129;DHT22;17777;48.770;8.944;2023-05-10T09:07:53;20.50;54.80
31129;DHT22;17777;48.770;8.944;2023-05-10T09:10:19;20.50;54.20
31129;DHT22;17777;48.770;8.944;2023-05-10T09:12:45;20.50;54.20
31129;DHT22;17777;48.770;8.944;2023-05-10T09:15:15;20.50;54.00
31129;DHT22;17777;48.770;8.944;2023-05-10T09:17:42;20.50;54.00
31129;DHT22;17777;48.770;8.944;2023-05-10T09:20:09;20.50;54.20
31129;DHT22;17777;48.770;8.944;2023-05-10T09:22:35;20.50;54.20
31129;DHT22;17777;48.770;8.944;2023-05-10T09:27:45;20.60;54.20
31129;DHT22;17777;48.770;8.944;2023-05-10T09:32:51;20.70;53.90
31129;DHT22;17777;48.770;8.944;2023-05-10T09:35:23;20.70;54.00
31129;DHT22;17777;48.770;8.944;2023-05-10T09:37:52;20.80;53.80
31129;DHT22;17777;48.770;8.944;2023-05-10T09:40:21;20.90;53.50
31129;DHT22;17777;48.770;8.944;2023-05-10T09:42:56;20.90;53.30
31129;DHT22;17777;48.770;8.944;2023-05-10T09:45:26;20.90;52.60
31129;DHT22;17777;48.770;8.944;2023-05-10T09:47:56;21.00;53.00
31129;DHT22;17777;48.770;8.944;2023-05-10T09:50:23;21.00;52.90
31129;DHT22;17777;48.770;8.944;2023-05-10T09:52:54;21.00;52.70
31129;DHT22;17777;48.770;8.944;2023-05-10T09:55:23;21.00;52.20
31129;DHT22;17777;48.770;8.944;2023-05-10T09:58:03;21.10;52.50
31129;DHT22;17777;48.770;8.944;2023-05-10T10:00:36;21.10;52.60
31129;DHT22;17777;48.770;8.944;2023-05-10T10:03:03;21.10;52.00
31129;DHT22;17777;48.770;8.944;2023-05-10T10:05:34;21.10;52.20
31129;DHT22;17777;48.770;8.944;2023-05-10T10:08:03;21.10;51.80
31129;DHT22;17777;48.770;8.944;2023-05-10T10:10:32;21.20;51.50
31129;DHT22;17777;48.770;8.944;2023-05-10T10:12:59;21.20;51.60
31129;DHT22;17777;48.770;8.944;2023-05-10T10:15:25;21.20;51.90
31129;DHT22;17777;48.770;8.944;2023-05-10T10:17:52;21.20;52.00
31129;DHT22;17777;48.770;8.944;2023-05-10T10:20:19;21.20;51.80
31129;DHT22;17777;48.770;8.944;2023-05-10T10:22:47;21.20;51.80
31129;DHT22;17777;48.770;8.944;2023-05-10T10:25:15;21.30;51.80
31129;DHT22;17777;48.770;8.944;2023-05-10T10:36:02;21.30;50.00
31129;DHT22;17777;48.770;8.944;2023-05-10T10:38:55;21.30;50.50
31129;DHT22;17777;48.770;8.944;2023-05-10T10:41:30;21.20;49.60
31129;DHT22;17777;48.770;8.944;2023-05-10T10:44:25;21.20;49.80
31129;DHT22;17777;48.770;8.944;2023-05-10T10:47:06;21.20;49.50
31129;DHT22;17777;48.770;8.944;2023-05-10T10:52:33;21.10;49.80
31129;DHT22;17777;48.770;8.944;2023-05-10T10:55:15;21.10;49.40
31129;DHT22;17777;48.770;8.944;2023-05-10T10:57:52;21.00;49.70
31129;DHT22;17777;48.770;8.944;2023-05-10T11:00:35;21.00;50.20
31129;DHT22;17777;48.770;8.944;2023-05-10T11:03:14;21.00;50.80
31129;DHT22;17777;48.770;8.944;2023-05-10T11:05:47;20.90;51.00
31129;DHT22;17777;48.770;8.944;2023-05-10T11:08:33;20.90;51.80
31129;DHT22;17777;48.770;8.944;2023-05-10T11:18:59;20.80;51.50
31129;DHT22;17777;48.770;8.944;2023-05-10T11:21:31;20.80;51.20
31129;DHT22;17777;48.770;8.944;2023-05-10T11:23:59;20.80;51.50
31129;DHT22;17777;48.770;8.944;2023-05-10T11:26:33;20.80;51.40
31129;DHT22;17777;48.770;8.944;2023-05-10T11:29:00;20.80;51.40
31129;DHT22;17777;48.770;8.944;2023-05-10T11:31:27;20.70;51.30
31129;DHT22;17777;48.770;8.944;2023-05-10T11:33:56;20.70;51.30
31129;DHT22;17777;48.770;8.944;2023-05-10T11:36:27;20.80;51.10
31129;DHT22;17777;48.770;8.944;2023-05-10T11:38:55;20.80;50.90
31129;DHT22;17777;48.770;8.944;2023-05-10T11:41:22;20.70;51.00
31129;DHT22;17777;48.770;8.944;2023-05-10T11:43:55;20.80;51.00
31129;DHT22;17777;48.770;8.944;2023-05-10T11:46:25;20.70;50.50
31129;DHT22;17777;48.770;8.944;2023-05-10T11:48:58;20.80;50.70
31129;DHT22;17777;48.770;8.944;2023-05-10T11:51:27;20.80;50.70
31129;DHT22;17777;48.770;8.944;2023-05-10T11:53:54;20.80;50.80
31129;DHT22;17777;48.770;8.944;2023-05-10T11:56:20;20.80;50.90
31129;DHT22;17777;48.770;8.944;2023-05-10T11:58:53;20.80;50.90
31129;DHT22;17777;48.770;8.944;2023-05-10T12:01:21;20.80;50.50
31129;DHT22;17777;48.770;8.944;2023-05-10T12:03:49;20.80;50.90
31129;DHT22;17777;48.770;8.944;2023-05-10T12:06:16;20.90;50.90
31129;DHT22;17777;48.770;8.944;2023-05-10T12:08:47;20.90;50.90
31129;DHT22;17777;48.770;8.944;2023-05-10T12:11:13;20.90;50.60
31129;DHT22;17777;48.770;8.944;2023-05-10T12:13:42;20.90;50.70
31129;DHT22;17777;48.770;8.944;2023-05-10T12:16:25;20.90;50.60
31129;DHT22;17777;48.770;8.944;2023-05-10T12:19:00;20.90;50.10
31129;DHT22;17777;48.770;8.944;2023-05-10T12:21:27;20.90;50.20
31129;DHT22;17777;48.770;8.944;2023-05-10T12:23:58;21.00;50.50
31129;DHT22;17777;48.770;8.944;2023-05-10T12:26:26;20.90;50.00
31129;DHT22;17777;48.770;8.944;2023-05-10T12:28:54;21.00;49.90
31129;DHT22;17777;48.770;8.944;2023-05-10T12:31:20;21.00;49.70
31129;DHT22;17777;48.770;8.944;2023-05-10T12:33:46;21.00;49.60
31129;DHT22;17777;48.770;8.944;2023-05-10T12:36:14;21.00;49.40
31129;DHT22;17777;48.770;8.944;2023-05-10T12:38:49;21.00;49.20
31129;DHT22;17777;48.770;8.944;2023-05-10T12:41:18;21.00;48.70
31129;DHT22;17777;48.770;8.944;2023-05-10T12:43:44;21.00;49.40
31129;DHT22;17777;48.770;8.944;2023-05-10T12:46:17;21.00;49.40
31129;DHT22;17777;48.770;8.944;2023-05-10T12:48:44;21.00;49.00
31129;DHT22;17777;48.770;8.944;2023-05-10T12:51:11;21.00;49.10
31129;DHT22;17777;48.770;8.944;2023-05-10T12:53:38;21.10;49.30
31129;DHT22;17777;48.770;8.944;2023-05-10T12:56:05;21.10;49.40
31129;DHT22;17777;48.770;8.944;2023-05-10T12:58:31;21.10;49.20
31129;DHT22;17777;48.770;8.944;2023-05-10T13:00:57;21.10;49.00
31129;DHT22;17777;48.770;8.944;2023-05-10T13:03:24;21.20;49.00
31129;DHT22;17777;48.770;8.944;2023-05-10T13:05:50;21.10;48.80
31129;DHT22;17777;48.770;8.944;2023-05-10T13:08:15;21.20;48.80
31129;DHT22;17777;48.770;8.944;2023-05-10T13:10:41;21.20;48.70
31129;DHT22;17777;48.770;8.944;2023-05-10T13:13:07;21.20;48.60
31129;DHT22;17777;48.770;8.944;2023-05-10T13:15:33;21.20;48.40
31129;DHT22;17777;48.770;8.944;2023-05-10T13:17:59;21.30;48.30
31129;DHT22;17777;48.770;8.944;2023-05-10T13:20:25;21.30;48.10
31129;DHT22;17777;48.770;8.944;2023-05-10T13:22:52;21.30;48.10
31129;DHT22;17777;48.770;8.944;2023-05-10T13:25:18;21.30;48.00
31129;DHT22;17777;48.770;8.944;2023-05-10T13:27:45;21.30;47.80
31129;DHT22;17777;48.770;8.944;2023-05-10T13:30:11;21.30;47.60
31129;DHT22;17777;48.770;8.944;2023-05-10T13:32:37;21.40;47.50
31129;DHT22;17777;48.770;8.944;2023-05-10T13:35:04;21.40;47.40
31129;DHT22;17777;48.770;8.944;2023-05-10T13:37:31;21.40;47.30
31129;DHT22;17777;48.770;8.944;2023-05-10T13:39:57;21.40;47.30
31129;DHT22;17777;48.770;8.944;2023-05-10T13:42:23;21.40;47.00
31129;DHT22;17777;48.770;8.944;2023-05-10T13:44:49;21.40;47.00
31129;DHT22;17777;48.770;8.944;2023-05-10T13:47:15;21.40;46.90
31129;DHT22;17777;48.770;8.944;2023-05-10T13:49:41;21.40;46.90
31129;DHT22;17777;48.770;8.944;2023-05-10T13:52:07;21.50;47.00
31129;DHT22;17777;48.770;8.944;2023-05-10T13:54:36;21.40;46.70
31129;DHT22;17777;48.770;8.944;2023-05-10T13:57:02;21.50;46.80
31129;DHT22;17777;48.770;8.944;2023-05-10T13:59:29;21.50;46.70
31129;DHT22;17777;48.770;8.944;2023-05-10T14:01:57;21.50;46.60
31129;DHT22;17777;48.770;8.944;2023-05-10T14:04:23;21.50;46.60
31129;DHT22;17777;48.770;8.944;2023-05-10T14:06:49;21.50;46.60
31129;DHT22;17777;48.770;8.944;2023-05-10T14:09:15;21.50;46.60
31129;DHT22;17777;48.770;8.944;2023-05-10T14:11:41;21.50;46.70
31129;DHT22;17777;48.770;8.944;2023-05-10T14:14:09;21.50;46.80
31129;DHT22;17777;48.770;8.944;2023-05-10T14:16:35;21.50;46.50
31129;DHT22;17777;48.770;8.944;2023-05-10T14:19:00;21.50;46.50
31129;DHT22;17777;48.770;8.944;2023-05-10T14:21:27;21.50;46.50
31129;DHT22;17777;48.770;8.944;2023-05-10T14:23:54;21.60;46.50
31129;DHT22;17777;48.770;8.944;2023-05-10T14:26:21;21.60;46.40
31129;DHT22;17777;48.770;8.944;2023-05-10T14:28:47;21.60;46.50
31129;DHT22;17777;48.770;8.944;2023-05-10T14:31:13;21.60;46.40
31129;DHT22;17777;48.770;8.944;2023-05-10T14:33:40;21.60;46.40
31129;DHT22;17777;48.770;8.944;2023-05-10T14:36:06;21.60;46.20
31129;DHT22;17777;48.770;8.944;2023-05-10T14:38:32;21.60;46.10
31129;DHT22;17777;48.770;8.944;2023-05-10T14:40:58;21.60;46.10
31129;DHT22;17777;48.770;8.944;2023-05-10T14:43:24;21.60;46.30
31129;DHT22;17777;48.770;8.944;2023-05-10T14:45:50;21.60;46.40
31129;DHT22;17777;48.770;8.944;2023-05-10T14:48:15;21.60;46.20
31129;DHT22;17777;48.770;8.944;2023-05-10T14:50:43;21.60;46.10
31129;DHT22;17777;48.770;8.944;2023-05-10T14:53:09;21.60;45.90
31129;DHT22;17777;48.770;8.944;2023-05-10T14:55:35;21.60;45.90
31129;DHT22;17777;48.770;8.944;2023-05-10T14:58:02;21.60;45.90
31129;DHT22;17777;48.770;8.944;2023-05-10T15:00:29;21.60;45.80
31129;DHT22;17777;48.770;8.944;2023-05-10T15:02:56;21.60;45.80
31129;DHT22;17777;48.770;8.944;2023-05-10T15:05:22;21.60;45.70
31129;DHT22;17777;48.770;8.944;2023-05-10T15:07:48;21.60;45.70
31129;DHT22;17777;48.770;8.944;2023-05-10T15:10:14;21.60;45.50
31129;DHT22;17777;48.770;8.944;2023-05-10T15:12:40;21.70;45.50
31129;DHT22;17777;48.770;8.944;2023-05-10T15:15:07;21.70;45.30
31129;DHT22;17777;48.770;8.944;2023-05-10T15:17:33;21.70;45.30
31129;DHT22;17777;48.770;8.944;2023-05-10T15:20:00;21.70;45.30
31129;DHT22;17777;48.770;8.944;2023-05-10T15:22:28;21.70;45.20
31129;DHT22;17777;48.770;8.944;2023-05-10T15:24:55;21.70;45.20
31129;DHT22;17777;48.770;8.944;2023-05-10T15:27:21;21.70;45.80
31129;DHT22;17777;48.770;8.944;2023-05-10T15:29:47;21.70;45.10
31129;DHT22;17777;48.770;8.944;2023-05-10T15:32:12;21.70;45.00
31129;DHT22;17777;48.770;8.944;2023-05-10T15:34:38;21.70;45.00
31129;DHT22;17777;48.770;8.944;2023-05-10T15:37:04;21.70;44.90
31129;DHT22;17777;48.770;8.944;2023-05-10T15:39:30;21.80;45.00
31129;DHT22;17777;48.770;8.944;2023-05-10T15:41:55;21.80;44.90
31129;DHT22;17777;48.770;8.944;2023-05-10T15:44:21;21.70;44.90
31129;DHT22;17777;48.770;8.944;2023-05-10T15:46:47;21.70;44.90
31129;DHT22;17777;48.770;8.944;2023-05-10T15:49:13;21.70;44.90
31129;DHT22;17777;48.770;8.944;2023-05-10T15:51:39;21.80;44.90
31129;DHT22;17777;48.770;8.944;2023-05-10T15:54:06;21.80;44.70
31129;DHT22;17777;48.770;8.944;2023-05-10T15:56:32;21.70;44.60
31129;DHT22;17777;48.770;8.944;2023-05-10T15:58:58;21.80;45.30
31129;DHT22;17777;48.770;8.944;2023-05-10T16:01:24;21.80;44.90
31129;DHT22;17777;48.770;8.944;2023-05-10T16:03:50;21.70;44.70
31129;DHT22;17777;48.770;8.944;2023-05-10T16:06:16;21.80;44.80